Aérodrome :
LOGIN :

S'inscrire | Disclaimer

   EN    FR    IT 

 










Légende :    VFR   VFR Marginal   IFR   IFR Intensif   IFR Très Intensif
Visi : 
Plafond : 
>= 8 km
>= 3000ft
5 à 8 km
1000 à 3000 ft
1500m à 5 km
500 à 1000 ft
800 à 1500m
200 à 500 ft
< 800m
< 200 ft
Symboles :   Orages  Brouillard  Fortes neiges  Fortes précipitations  Vent > 20 kt
SIGMETs :   Divers  Orages  Givrage  Turbulence  Onde Orograph.  Cendres Volcan.






- Altitude de l'aérodrome : 160 ft
- Code IATA : LRT


LFRH - Lorient Lann Bihoue

DERNIER METAR :
  • 152000Z AUTO 21012KT 9999 FEW033 BKN046 BKN068 10/06 Q1003 TEMPO VRB15G25KT 4000 SHRA BKN020TCU

METARs EXPIRÉS :
  • 151930Z AUTO 22013KT 9999 SCT030 BKN040 BKN050 10/06 Q1003 TEMPO VRB15G25KT 4000 SHRA BKN020TCU
  • 151900Z AUTO 22012KT 9999 FEW030 BKN058 BKN200 10/06 Q1003 TEMPO VRB15G25KT 4000 SHRA BKN020TCU
  • 151830Z AUTO 22017KT 9999 FEW027/// SCT060/// ///TCU 10/06 Q1003 TEMPO VRB15G25KT 4000 SHRA
  • 151800Z AUTO 20013KT 9999 SCT028/// BKN040/// BKN060/// ///CB 11/07 Q1003 TEMPO VRB15G25KT 4000 SHRA
  • 151730Z AUTO 20012KT 9999 FEW038/// SCT058/// BKN220/// ///TCU 10/05 Q1003 TEMPO VRB15G25KT 4000 SHRA

TAF TAF LFRH
Valide du 15 à 18h jusqu'au 16 à 18h UTC


151700Z 1518/1618 21013KT 9999 BKN030
TEMPO 1518/1602 VRB15G25KT 4000 SHRA BKN020TCU
BECMG 1603/1605 BKN015 OVC030
BECMG 1608/1612 07006KT 4500 RA BKN010 BKN015TCU
BECMG 1616/1618 9999 NSW BKN030



MET'MAP, la Météo Aéronautique d'un coup d'oeil ! - Copyright ORBIFLY Décembre 2007 - Disclaimer

ORBIFLY MET'MAP TEAM :

Programmation & Développement : Alexandra Zaïnal
Sur une idée originale de : Baudouin d'Aumeries
Assistance à la programmation : Marc-Olivier Méhu
Soutien technique & logistique : Manuel Goepfert

Contact : metmap@orbifly.com




SOURCES & CREDITS :

   NOAA